Free Trial

A. O. Smith (AOS) Institutional Ownership

$84.78
+0.71 (+0.84%)
(As of 05/24/2024 ET)

Institutional Ownership Changes (13F Filings) for A. O. Smith (NYSE:AOS)

Current
Institutional Ownership
Percentage
76.10%
Number of
Institutional Buyers
(last 12 months)
313
Total
Institutional Inflows
(last 12 months)
$1.48B
Number of
Institutional Sellers
(last 12 months)
237
Total
Institutional Outflows
(last 12 months)
$830.73M
Get AOS Insider Trade Alerts

Want to know when executives and insiders are buying or selling A. O. Smith stock? Sign up for InsiderTrades.com's daily newsletter to get the latest insider transactions delivered to your inbox daily.

Skip Chart & View Institutional Buying and Selling Data

AOS Institutional Buying and Selling by Quarter

A. O. Smith Major Shareholders & Ownership History

Reporting DateMajor Shareholder NameShares HeldMarket Value% of PortfolioQuarterly Change in SharesOwnership in CompanyDetails
5/24/2024 Cetera Advisors LLC7,547$675K0.0%N/A0.005%
5/24/2024 Cetera Investment Advisers25,255$2.26M0.0%+222.0%0.017%
5/22/2024 Burney Co.4,778$427K0.0%-32.0%0.003%
5/21/2024 Atria Investments Inc30,817$2.76M0.0%-2.3%0.021%
5/21/2024 Swedbank AB16,709$1.50M0.0%N/A0.011%
5/20/2024 Cim LLC39,111$3.50M0.5%-0.4%0.027%
5/20/2024 Algebris UK Ltd6,109$506K0.2%+2.3%0.004%
5/17/2024 Plato Investment Management Ltd7,847$702K0.1%N/A0.005%
5/17/2024 iA Global Asset Management Inc.29,033$2.60M0.0%-5.3%0.020%
5/17/2024 WealthPlan Investment Management LLC18,391$1.65M0.3%N/A0.013%
5/17/2024 Comerica Bank33,685$3.01M0.0%-3.5%0.023%
5/17/2024 Tidal Investments LLC21,400$1.91M0.0%+119.8%0.015%
5/16/2024 California State Teachers Retirement System185,764$16.62M0.0%-2.4%0.127%
5/16/2024 Meiji Yasuda Life Insurance Co3,800$340K0.0%+16.2%0.003%
5/16/2024 B. Riley Wealth Advisors Inc.3,969$355K0.0%+19.8%0.003%
5/16/2024 Janus Henderson Group PLC8,730$781K0.0%-12.1%0.006%
5/16/2024Benchmark Investment Advisors LLC6,266$561K0.4%N/A0.004%
5/16/2024 Zurich Insurance Group Ltd FI16,000$1.43M0.0%N/A0.011%
5/15/2024 Earnest Partners LLC1,973,942$176.59M0.8%+5.7%1.346%
5/15/2024 Public Employees Retirement System of Ohio57,236$5.12M0.0%-4.2%0.039%
5/15/2024 Public Employees Retirement Association of Colorado12,389$1.11M0.0%-9.5%0.008%
5/15/2024 Kentucky Retirement Systems Insurance Trust Fund4,053$363K0.0%-7.4%0.003%
5/15/2024 Kentucky Retirement Systems9,328$834K0.0%-5.1%0.006%
5/15/2024 Price T Rowe Associates Inc. MD234,598$20.99M0.0%-4.1%0.160%
5/15/2024 Lazard Asset Management LLC2,417$216K0.0%+398.4%0.002%
5/15/2024 1832 Asset Management L.P.998,290$89.31M0.1%+15.1%0.681%
5/15/2024 Gabelli Funds LLC22,200$1.99M0.0%-5.5%0.015%
5/15/2024 Gamco Investors INC. ET AL72,000$6.44M0.1%-5.3%0.049%
5/14/2024 Toronto Dominion Bank69,314$6.20M0.0%+1.8%0.047%
5/14/2024 Cadence Bank7,544$675K0.0%N/A0.005%
5/14/2024 EP Wealth Advisors LLC2,744$245K0.0%N/A0.002%
5/14/2024 Vident Advisory LLC176,137$15.76M0.3%-8.1%0.120%
5/14/2024 Shell Asset Management Co.9,091$813K0.0%+86.3%0.006%
5/14/2024 Natixis Investment Managers International1,604$143K0.0%-10.8%0.001%
5/14/2024 Natixis146,198$13.08M0.1%-12.3%0.100%
5/14/2024 CANADA LIFE ASSURANCE Co86,737$7.76M0.0%-8.3%0.059%
5/14/2024 American International Group Inc.32,966$2.95M0.0%-0.8%0.022%
5/14/2024 Lake Street Advisors Group LLC2,246$201K0.0%N/A0.002%
5/14/2024 Arjuna Capital28,116$2.52M0.7%+3.9%0.019%
5/13/2024 Bessemer Group Inc.784,581$70.19M0.1%-28.5%0.535%
Obama’s Forever Term [exposed] (Ad)

America’s Last Election New documentary, America’s Last Election, reveals the true (and terrifying) story of how the D.C. establishment has engineered a brutal new crisis that could hand them permanent power. Power they will use to reshape America to their dark, dystopian vision.

Start streaming it now at no cost here
5/13/2024 UniSuper Management Pty Ltd12,075$1.08M0.0%+589.6%0.008%
5/13/2024 Seven Eight Capital LP8,134$728K0.1%-2.9%0.006%
5/13/2024 O Shaughnessy Asset Management LLC21,529$1.93M0.0%+10.4%0.015%
5/13/2024 PAX Financial Group LLC9,744$872K0.2%-4.0%0.007%
5/11/2024 Covestor Ltd2,749$246K0.2%+99.3%0.002%
5/11/2024 Hillsdale Investment Management Inc.7,150$640K0.1%-2.7%0.005%
5/11/2024 Patten & Patten Inc. TN210,922$18.87M1.3%+1.8%0.144%
5/10/2024 Ontario Teachers Pension Plan Board65,432$5.85M0.1%+37.9%0.045%
5/10/2024 Acadian Asset Management LLC34,912$3.12M0.0%-86.2%0.024%
5/10/2024 Vanguard Group Inc.14,230,743$1.27B0.0%-0.2%9.703%
5/10/2024 Intech Investment Management LLC51,518$4.61M0.1%+84.8%0.035%
5/10/2024 Mitsubishi UFJ Trust & Banking Corp668,603$59.59M0.1%-0.1%0.456%
5/10/2024 Pinnacle Wealth Planning Services Inc.4,007$358K0.1%+52.1%0.003%
5/10/2024 Mizuho Markets Americas LLC127,005$11.36M0.3%+87.1%0.087%
5/10/2024 Banco Santander S.A.47,315$4.23M0.1%+11.6%0.032%
5/10/2024 Twin Tree Management LP737$66K0.0%-188.9%0.001%
5/9/2024 Trillium Asset Management LLC4,104$367K0.0%-93.4%0.003%
5/9/2024 Blair William & Co. IL3,930$352K0.0%-12.5%0.003%
5/9/2024 Orion Portfolio Solutions LLC54,359$4.86M0.1%-19.7%0.037%
5/9/2024 Mitsubishi UFJ Asset Management Co. Ltd.225,930$20.21M0.0%+11.3%0.154%
5/9/2024 Pembroke Management LTD290,166$25.96M3.1%-2.9%0.198%
5/9/2024 State Board of Administration of Florida Retirement System142,934$12.79M0.0%+4.6%0.097%
5/9/2024 Eagle Bay Advisors LLC2,038$182K0.1%-19.1%0.001%
5/8/2024 BNP PARIBAS ASSET MANAGEMENT Holding S.A.183,611$16.43M0.0%+33.6%0.125%
5/8/2024 ProShare Advisors LLC2,134,796$190.98M0.5%-10.2%1.456%
5/8/2024 Avantax Advisory Services Inc.4,117$368K0.0%-12.7%0.003%
5/8/2024 US Bancorp DE18,983$1.70M0.0%-3.0%0.013%
5/8/2024 Russell Investments Group Ltd.175,635$15.71M0.0%+3.0%0.120%
5/8/2024 QRG Capital Management Inc.9,707$868K0.0%-2.5%0.007%
5/8/2024 Inspire Investing LLC20,451$1.83M0.2%N/A0.014%
5/8/2024 Donoghue Forlines LLC5,273$472K0.1%-38.6%0.004%
5/7/2024 Meeder Asset Management Inc.45,556$4.08M0.3%+278.9%0.031%
5/7/2024 Sei Investments Co.1,326,586$118.68M0.2%+5.5%0.904%
5/7/2024 Anchor Capital Advisors LLC782,156$69.97M1.8%-9.9%0.533%
5/7/2024 Foyston Gordon & Payne Inc74,725$6.69M1.6%-2.7%0.051%
5/7/2024 WealthPLAN Partners LLC33,554$3.00M0.3%N/A0.023%
5/7/2024 Heartland Advisors Inc.105,621$9.45M0.5%+41.0%0.072%
5/7/2024 Swiss National Bank367,800$32.90M0.0%-5.3%0.251%
5/7/2024 Forsta AP Fonden70,300$6.29M0.1%+188.1%0.048%
5/7/2024 Algebris UK Ltd6,109$506K0.1%+2.3%0.004%
5/7/2024 Oppenheimer Asset Management Inc.7,058$631K0.0%-7.3%0.005%
5/7/2024 Oppenheimer & Co. Inc.19,304$1.73M0.0%-3.9%0.013%
5/7/2024 Wealthspire Advisors LLC2,596$232K0.0%-12.6%0.002%
5/6/2024 Empirical Finance LLC4,618$413K0.0%+3.3%0.003%
5/6/2024 ORG Partners LLC612$55K0.1%+665.0%0.000%
5/6/2024 Duality Advisers LP7,829$700K0.1%-16.6%0.005%
5/6/2024 TFG Advisers LLC2,400$215K0.1%N/A0.002%
5/3/2024 Larson Financial Group LLC4,420$395K0.0%+63.3%0.003%
5/3/2024 Chevy Chase Trust Holdings LLC94,183$8.43M0.0%-0.8%0.064%
5/3/2024 Commerce Bank72,563$6.49M0.0%-1.6%0.049%
Shocking $16T Elon Musk Crypto Leak (Ad)

Reports of a leaked meeting between Elon Musk and staff at X.com could send shockwaves through the crypto market. Musk revealed a "mind-blowing" plan to take over the global payment system. In his own words, the world's richest man said "you won't need a bank account." Prominent voices in crypto believe what comes next will mirror a crypto mass adoption similar to the one that triggered bitcoin's last bull run.

Click here now to get your copy.
5/2/2024 First Command Advisory Services Inc.1,475$132K0.0%N/A0.001%
5/2/2024 Mutual of America Capital Management LLC16,110$1.44M0.0%-3.0%0.011%
5/2/2024 Daiwa Securities Group Inc.15,043$1.35M0.0%+36.9%0.010%
5/2/2024 Nordea Investment Management AB10,182$907K0.0%-6.0%0.007%
5/2/2024 Fidelis Capital Partners LLC1,218$109K0.0%N/A0.001%
5/1/2024 Janney Montgomery Scott LLC180,110$16.11M0.0%-6.4%0.122%
5/1/2024 BNP Paribas Financial Markets174,532$15.61M0.0%+59.8%0.119%
5/1/2024 Mirae Asset Global Investments Co. Ltd.42,525$3.80M0.0%-5.0%0.029%
5/1/2024 Smith Group Asset Management LLC17,560$1.57M0.1%N/A0.012%
5/1/2024 Diversify Advisory Services LLC2,384$212K0.0%N/A0.002%
(Data available from 1/1/2016 forward)

AOS Institutional Ownership - Frequently Asked Questions

Who are the largest shareholders of AOS shares?

During the previous two years, 582 institutional investors and hedge funds held shares of A. O. Smith. The most heavily invested institutionals were Vanguard Group Inc. ($1.27B), BlackRock Inc. ($658.73M), State Street Corp ($557.57M), Impax Asset Management Group plc ($291.20M), Geode Capital Management LLC ($210.71M), Invesco Ltd. ($200.96M), and ProShare Advisors LLC ($190.98M).Learn more on AOS's institutional investors.

What percentage of A. O. Smith stock is owned by institutional investors?

76.10% of A. O. Smith stock is owned by institutional investors. Learn more on AOS's institutional investor holdings.

Which institutional investors have been buying A. O. Smith stock?

Of the 473 institutional investors that purchased A. O. Smith stock in the last 24 months, the following investors and hedge funds have bought the highest volume of shares: Bank Julius Baer & Co. Ltd Zurich ($8.14M), Premier Fund Managers Ltd ($3.37M), Fisher Asset Management LLC ($1.98M), CFS Investment Advisory Services LLC ($1.71M), Norges Bank ($1.31M), ProShare Advisors LLC ($1.22M), and TimesSquare Capital Management LLC ($1.14M).

How much institutional buying is happening at A. O. Smith?

Institutional investors have bought a total of 40,283,856 shares in the last 24 months. This purchase volume represents approximately $2.66B in transactions.

Which A. O. Smith major shareholders have been selling company stock?

Of the 354 institutional investors that sold A. O. Smith stock in the last 24 months, the following investors and hedge funds have sold the highest volume of shares: Robeco Institutional Asset Management B.V. ($2.31M), CFS Investment Advisory Services LLC ($1.69M), ProShare Advisors LLC ($1.36M), State Street Corp ($1.11M), Pictet Asset Management SA ($898.04K), Robeco Schweiz AG ($775.33K), and BlackRock Inc. ($764.04K).

How much institutional selling is happening at A. O. Smith?

Institutional investors have sold a total of 25,564,346 shares in the last 24 months. This volume of shares sold represents approximately $1.65B in transactions.


This page (NYSE:AOS) was last updated on 5/25/2024 by MarketBeat.com Staff

From Our Partners